Главная страница
METAR-TAF:

METAR-TAF

Аэропорты :

Linden, Нью-Джерси, США

широта: 40-37-03N, долгота: 074-14-40W, высота над уровнем моря: 7 м

Текущие метеонаблюдения

Эта сводка был подготовлена 14 минут назад, в 11:35 UTC
Ветер 10 Узел от западный с порывами до 19 Узел
Температура -1°C
Влажность 43%
Давление 1012 hPa
Видимость: 16.1 км
ясное небо

METAR: KLDJ 281135Z AUTO 28010G19KT 10SM CLR M01/M12 A2988 RMK AO2 T10151125

Время: 06:49 (11:49 UTC)


TAF: отсутствует

Метеонаблюдения и прогнозы для более 4000 аэропортов (сводки METAR и TAF).

Имеющиеся станции представлены на карте желтыми и красными точками.

Чтобы увидеть название станции, наведите на нее мышь.

Затем щелкните, чтобы увидеть метеонаблюдения и метеопрогнозы.

Управление картой: чтобы увеличить масштаб, щелкните зеленые кнопки с черным крестиком; чтобы уменьшить масштаб, щелкните зеленую кнопку с тире; для просмотра соседних карт щелкайте зеленые стрелки.


METAR-TAF: